Terminal Aerodrome Forecast
Issued by NWS Charleston, WV

Current Version | Previous Version | Graphics & Text | Print | Product List | Glossary On
Versions: 1 2 3 4 5 6 7 8 9 10 11 12 13 14 15 16 17 18 19 20 21 22
000
FTUS41 KRLX 052300
TAFCRW
TAF
KCRW 052327Z 0600/0624 34005KT 2SM -SN BKN015
     FM060100 34005KT 6SM BR BKN015
     FM060200 36004KT P6SM BKN025
     FM060500 00000KT P6SM SCT025
     FM061400 27004KT P6SM FEW025
     FM062300 00000KT P6SM FEW200=

USA.gov is the U.S. government's official web portal to all federal, state and local government web resources and services.